createdAt,value
2017-12-02T00:02:13.392Z,98752.28
2017-12-02T00:04:42.993Z,98752.69
2017-12-02T00:07:12.823Z,98760.48
2017-12-02T00:09:42.726Z,98759.89
2017-12-02T00:12:12.607Z,98758.85
2017-12-02T00:14:42.691Z,98757.27
2017-12-02T00:17:12.484Z,98754.72
2017-12-02T00:19:42.305Z,98763.61
2017-12-02T00:22:11.677Z,98764.79
2017-12-02T00:24:41.163Z,98752.81
2017-12-02T00:27:11.044Z,98751.33
2017-12-02T00:29:40.934Z,98757.08
2017-12-02T00:32:10.807Z,98754.94
2017-12-02T00:34:40.147Z,98758.98
2017-12-02T00:37:10.081Z,98756.34
2017-12-02T00:39:39.980Z,98758.97
2017-12-02T00:42:09.338Z,98758.06
2017-12-02T00:44:39.057Z,98764.44
2017-12-02T00:47:09.119Z,98763.84
2017-12-02T00:49:39.022Z,98776.32
2017-12-02T00:52:08.917Z,98775.45
2017-12-02T00:54:38.773Z,98779.36
2017-12-02T00:57:09.103Z,98790.63
2017-12-02T00:59:38.783Z,98799.20
2017-12-02T01:02:08.830Z,98810.77
2017-12-02T01:04:38.454Z,98805.05
2017-12-02T01:07:08.170Z,98814.03
2017-12-02T01:09:38.026Z,98815.20
2017-12-02T01:12:07.702Z,98819.05
2017-12-02T01:14:37.413Z,98816.67
2017-12-02T01:17:07.190Z,98826.28
2017-12-02T01:19:37.041Z,98830.83
2017-12-02T01:22:06.873Z,98835.62
2017-12-02T01:24:36.504Z,98840.83
2017-12-02T01:27:06.370Z,98828.52
2017-12-02T01:29:36.224Z,98834.94
2017-12-02T01:32:06.084Z,98841.48
2017-12-02T01:34:36.867Z,98846.78
2017-12-02T01:37:06.724Z,98847.61
2017-12-02T01:39:36.784Z,98846.05
2017-12-02T01:42:06.720Z,98846.91
2017-12-02T01:44:36.669Z,98843.89
2017-12-02T01:47:06.575Z,98837.98
2017-12-02T01:49:36.429Z,98836.52
2017-12-02T01:52:06.466Z,98834.13
2017-12-02T01:54:36.543Z,98837.71
2017-12-02T01:57:06.454Z,98827.89
2017-12-02T01:59:36.310Z,98836.70
2017-12-02T02:02:06.336Z,98840.48
2017-12-02T02:04:36.252Z,98838.22
2017-12-02T02:07:06.181Z,98838.13
2017-12-02T02:09:36.003Z,98839.70
2017-12-02T02:12:06.101Z,98844.19
2017-12-02T02:14:36.091Z,98839.52
2017-12-02T02:17:05.974Z,98829.89
2017-12-02T02:19:35.938Z,98839.42
2017-12-02T02:22:05.743Z,98841.30
2017-12-02T02:24:35.517Z,98844.30
2017-12-02T02:27:05.374Z,98855.86
2017-12-02T02:29:35.247Z,98854.30
2017-12-02T02:32:05.124Z,98860.54
2017-12-02T02:34:34.998Z,98862.63
2017-12-02T02:37:04.809Z,98875.38
2017-12-02T02:39:34.606Z,98876.22
2017-12-02T02:57:31.156Z,98901.58
2017-12-02T03:12:18.408Z,98929.05
2017-12-02T04:29:38.599Z,98957.87
2017-12-02T04:32:21.537Z,98955.84
2017-12-02T04:43:07.092Z,98965.54
2017-12-02T04:59:26.098Z,98981.63
2017-12-02T05:04:43.538Z,98986.36
2017-12-02T05:12:36.632Z,99004.58
2017-12-02T05:17:55.610Z,99006.74
2017-12-02T05:37:12.054Z,99007.27
2017-12-02T05:39:43.320Z,99020.19
2017-12-02T05:52:31.452Z,99027.70
2017-12-02T05:57:35.727Z,99036.55
2017-12-02T07:16:05.426Z,99115.16
2017-12-02T07:18:34.646Z,99113.86
2017-12-02T07:21:03.868Z,99110.30
2017-12-02T07:23:33.052Z,99111.41
2017-12-02T07:26:16.261Z,99113.27
2017-12-02T07:28:50.264Z,99107.50
2017-12-02T07:31:37.567Z,99104.94
2017-12-02T07:34:08.122Z,99104.48
2017-12-02T07:36:38.665Z,99101.77
2017-12-02T07:39:09.796Z,99105.02
2017-12-02T07:41:39.323Z,99118.63
2017-12-02T07:44:09.429Z,99121.29
2017-12-02T07:46:38.954Z,99121.72
2017-12-02T07:49:08.881Z,99127.50
2017-12-02T07:51:38.694Z,99121.08
2017-12-02T07:54:08.486Z,99121.42
2017-12-02T07:56:38.260Z,99127.86
2017-12-02T07:59:08.364Z,99128.34
2017-12-02T08:01:37.789Z,99126.30
2017-12-02T08:04:07.046Z,99131.34
2017-12-02T08:06:36.500Z,99131.91
2017-12-02T08:09:14.104Z,99130.95
2017-12-02T08:11:46.385Z,99131.41
2017-12-02T08:14:16.622Z,99131.84
2017-12-02T08:16:46.475Z,99131.38
2017-12-02T08:19:16.565Z,99134.94
2017-12-02T08:21:47.995Z,99142.69
2017-12-02T08:24:17.474Z,99147.19
2017-12-02T08:26:47.121Z,99149.73
2017-12-02T08:29:21.770Z,99156.02
2017-12-02T08:31:52.601Z,99155.38
2017-12-02T08:34:22.154Z,99157.93
2017-12-02T08:36:51.985Z,99157.05
2017-12-02T08:39:21.588Z,99160.59
2017-12-02T08:41:51.297Z,99173.46
2017-12-02T08:44:29.411Z,99169.45
2017-12-02T08:47:04.344Z,99175.49
2017-12-02T08:49:34.862Z,99177.06
2017-12-02T08:52:04.385Z,99177.41
2017-12-02T08:54:34.203Z,99182.09
2017-12-02T08:57:04.164Z,99189.01
2017-12-02T08:59:33.787Z,99193.78
2017-12-02T09:02:03.357Z,99192.03
2017-12-02T09:04:33.028Z,99199.19
2017-12-02T09:07:02.855Z,99198.89
2017-12-02T09:09:32.370Z,99191.46
2017-12-02T09:12:01.795Z,99195.19
2017-12-02T09:14:31.126Z,99199.73
2017-12-02T09:17:00.883Z,99197.66
2017-12-02T09:19:30.376Z,99205.00
2017-12-02T09:22:00.051Z,99201.81
2017-12-02T09:24:29.669Z,99204.27
2017-12-02T09:26:59.151Z,99206.60
2017-12-02T09:29:28.690Z,99200.62
2017-12-02T09:31:58.309Z,99202.59
2017-12-02T09:34:28.231Z,99206.16
2017-12-02T09:36:57.710Z,99205.91
2017-12-02T09:39:27.448Z,99202.24
2017-12-02T09:41:56.900Z,99199.84
2017-12-02T09:44:26.802Z,99203.23
2017-12-02T09:46:56.393Z,99202.62
2017-12-02T09:49:25.968Z,99197.37
2017-12-02T09:51:55.933Z,99198.41
2017-12-02T09:54:25.469Z,99202.56
2017-12-02T09:56:55.558Z,99202.82
2017-12-02T09:59:36.477Z,99206.80
2017-12-02T10:02:08.574Z,99209.80
2017-12-02T10:04:38.076Z,99205.30
2017-12-02T10:07:07.685Z,99204.40
2017-12-02T10:09:37.476Z,99196.26
2017-12-02T10:12:06.922Z,99191.00
2017-12-02T10:14:36.689Z,99193.95
2017-12-02T10:17:06.642Z,99191.70
2017-12-02T10:19:36.263Z,99188.08
2017-12-02T10:22:05.982Z,99199.84
2017-12-02T10:24:35.517Z,99194.59
2017-12-02T10:27:04.927Z,99195.20
2017-12-02T10:29:34.789Z,99195.50
2017-12-02T10:32:04.307Z,99188.70
2017-12-02T10:34:33.306Z,99195.85
2017-12-02T10:37:03.013Z,99197.81
2017-12-02T10:39:32.608Z,99198.62
2017-12-02T10:42:01.927Z,99198.08
2017-12-02T10:44:32.101Z,99195.03
2017-12-02T10:47:01.889Z,99196.30
2017-12-02T10:49:31.322Z,99191.13
2017-12-02T10:52:01.104Z,99185.70
2017-12-02T10:54:30.536Z,99184.92
2017-12-02T10:56:59.769Z,99185.69
2017-12-02T10:59:29.508Z,99185.50
2017-12-02T11:01:59.232Z,99185.47
2017-12-02T11:04:29.286Z,99184.39
2017-12-02T11:06:59.798Z,99184.98
2017-12-02T11:09:29.607Z,99177.02
2017-12-02T11:11:59.567Z,99176.58
2017-12-02T11:14:30.127Z,99177.63
2017-12-02T11:16:59.909Z,99179.67
2017-12-02T11:19:29.672Z,99180.84
2017-12-02T11:21:59.502Z,99178.59
2017-12-02T11:24:29.303Z,99184.64
2017-12-02T11:26:59.115Z,99184.63
2017-12-02T11:29:31.046Z,99183.05
2017-12-02T11:32:01.408Z,99185.30
2017-12-02T11:34:31.159Z,99187.34
2017-12-02T11:37:00.575Z,99190.53
2017-12-02T11:39:32.136Z,99189.73
2017-12-02T11:42:04.749Z,99192.61
2017-12-02T11:44:35.057Z,99188.50
2017-12-02T11:47:05.046Z,99195.13
2017-12-02T11:49:35.664Z,99197.94
2017-12-02T11:52:05.476Z,99198.26
2017-12-02T11:54:36.001Z,99189.61
2017-12-02T12:11:41.870Z,99200.81
2017-12-02T12:16:48.246Z,99206.09
2017-12-02T12:24:27.133Z,99204.58
2017-12-02T12:26:57.533Z,99205.88
2017-12-02T12:29:27.984Z,99204.91
2017-12-02T12:31:58.036Z,99210.22
2017-12-02T12:34:27.795Z,99209.96
2017-12-02T12:36:57.540Z,99202.88
2017-12-02T12:39:27.472Z,99207.16
2017-12-02T12:41:57.320Z,99202.61
2017-12-02T12:44:27.047Z,99207.94
2017-12-02T12:46:57.659Z,99209.92
2017-12-02T12:49:27.331Z,99208.99
2017-12-02T12:51:56.816Z,99208.00
2017-12-02T12:54:26.681Z,99201.73
2017-12-02T12:56:56.521Z,99204.94
2017-12-02T12:59:26.155Z,99208.41
2017-12-02T13:01:55.815Z,99208.34
2017-12-02T13:04:25.924Z,99204.47
2017-12-02T13:06:55.826Z,99204.17
2017-12-02T13:09:25.765Z,99203.25
2017-12-02T13:11:55.734Z,99200.15
2017-12-02T13:14:25.848Z,99201.27
2017-12-02T13:16:55.816Z,99200.42
2017-12-02T13:19:25.655Z,99197.36
2017-12-02T13:21:55.801Z,99203.16
2017-12-02T13:24:25.612Z,99204.47
2017-12-02T13:26:55.460Z,99206.51
2017-12-02T13:29:25.272Z,99211.89
2017-12-02T13:31:55.065Z,99206.05
2017-12-02T13:34:24.850Z,99208.45
2017-12-02T13:36:54.556Z,99208.25
2017-12-02T13:39:24.457Z,99208.91
2017-12-02T13:41:54.175Z,99208.41
2017-12-02T13:44:23.900Z,99211.88
2017-12-02T13:46:53.703Z,99213.81
2017-12-02T13:49:23.537Z,99209.54
2017-12-02T13:51:53.111Z,99217.96
2017-12-02T13:54:22.835Z,99218.95
2017-12-02T13:56:52.564Z,99222.59
2017-12-02T13:59:22.329Z,99227.76
2017-12-02T14:01:52.107Z,99230.69
2017-12-02T14:04:23.731Z,99222.44
2017-12-02T14:06:53.579Z,99226.53
2017-12-02T14:09:23.385Z,99229.20
2017-12-02T14:11:53.208Z,99233.98
2017-12-02T14:14:23.708Z,99229.20
2017-12-02T14:16:53.470Z,99232.57
2017-12-02T14:19:23.747Z,99230.24
2017-12-02T14:21:53.570Z,99231.28
2017-12-02T14:24:23.492Z,99232.70
2017-12-02T14:26:53.389Z,99233.75
2017-12-02T14:29:23.047Z,99239.35
2017-12-02T14:31:52.777Z,99244.09
2017-12-02T14:34:23.558Z,99243.41
2017-12-02T14:36:53.398Z,99247.77
2017-12-02T14:39:23.466Z,99240.19
2017-12-02T14:44:31.971Z,99238.39
2017-12-02T14:47:01.732Z,99242.52
2017-12-02T14:49:36.948Z,99226.16
2017-12-02T14:52:10.285Z,99233.61
2017-12-02T14:54:46.113Z,99232.67
2017-12-02T14:57:16.756Z,99239.78
2017-12-02T14:59:47.501Z,99237.88
2017-12-02T15:02:21.052Z,99230.03
2017-12-02T15:04:50.948Z,99230.58
2017-12-02T15:07:20.721Z,99232.27
2017-12-02T15:09:50.693Z,99234.92
2017-12-02T15:12:20.605Z,99241.02
2017-12-02T15:14:50.306Z,99231.31
2017-12-02T15:26:44.486Z,99246.86
2017-12-02T15:29:14.822Z,99239.42
2017-12-02T15:31:44.646Z,99244.64
2017-12-02T15:34:14.562Z,99245.26
2017-12-02T15:36:53.746Z,99247.92
2017-12-02T15:39:25.074Z,99246.19
2017-12-02T15:41:54.706Z,99252.12
2017-12-02T15:44:24.797Z,99247.89
2017-12-02T15:46:54.716Z,99248.01
2017-12-02T15:49:29.354Z,99247.48
2017-12-02T15:59:15.418Z,99264.28
2017-12-02T16:01:45.718Z,99260.62
2017-12-02T16:04:19.693Z,99261.05
2017-12-02T16:06:52.206Z,99255.48
2017-12-02T16:09:23.993Z,99259.67
2017-12-02T16:11:57.162Z,99254.86
2017-12-02T16:14:32.040Z,99255.14
2017-12-02T16:17:01.991Z,99261.27
2017-12-02T16:19:35.023Z,99262.42
2017-12-02T16:24:40.271Z,99260.76
2017-12-02T16:27:10.644Z,99272.80
2017-12-02T16:29:40.599Z,99268.83
2017-12-02T16:32:10.664Z,99277.50
2017-12-02T16:34:43.366Z,99274.62
2017-12-02T16:39:50.711Z,99271.88
2017-12-02T16:42:22.227Z,99281.30
2017-12-02T16:44:54.256Z,99282.06
2017-12-02T16:47:23.759Z,99287.59
2017-12-02T16:49:53.895Z,99284.78
2017-12-02T16:52:23.876Z,99284.19
2017-12-02T16:54:53.809Z,99287.20
2017-12-02T16:59:57.902Z,99283.91
2017-12-02T17:05:02.117Z,99281.62
2017-12-02T17:07:32.696Z,99278.80
2017-12-02T17:10:03.371Z,99276.92
2017-12-02T17:12:33.494Z,99275.67
2017-12-02T17:15:05.076Z,99277.89
2017-12-02T17:17:35.003Z,99280.55
2017-12-02T17:20:08.098Z,99283.54
2017-12-02T17:22:38.258Z,99282.31
2017-12-02T17:25:09.157Z,99290.11
2017-12-02T17:27:39.141Z,99293.45
2017-12-02T17:30:09.202Z,99296.31
2017-12-02T17:32:39.464Z,99289.47
2017-12-02T17:35:09.370Z,99295.27
2017-12-02T17:37:39.534Z,99288.16
2017-12-02T17:40:10.690Z,99285.62
2017-12-02T17:42:40.237Z,99287.53
2017-12-02T17:45:10.116Z,99293.75
2017-12-02T17:47:40.771Z,99292.02
2017-12-02T17:50:18.675Z,99288.05
2017-12-02T17:52:49.334Z,99288.78
2017-12-02T17:55:21.838Z,99292.16
2017-12-02T17:57:51.805Z,99298.70
2017-12-02T18:00:22.664Z,99297.89
2017-12-02T18:02:53.008Z,99296.06
2017-12-02T18:05:23.811Z,99296.13
2017-12-02T18:07:54.477Z,99296.88
2017-12-02T18:10:24.696Z,99297.64
2017-12-02T18:12:55.033Z,99295.95
2017-12-02T18:15:25.153Z,99302.80
2017-12-02T18:17:55.133Z,99304.98
2017-12-02T18:20:25.060Z,99309.80
2017-12-02T18:22:56.458Z,99301.59
2017-12-02T18:25:30.811Z,99301.25
2017-12-02T18:28:00.706Z,99300.27
2017-12-02T18:30:30.644Z,99302.44
2017-12-02T18:33:00.640Z,99302.19
2017-12-02T18:35:30.694Z,99301.28
2017-12-02T18:38:00.622Z,99301.29
2017-12-02T18:40:30.907Z,99300.97
2017-12-02T18:43:00.572Z,99304.62
2017-12-02T18:45:30.761Z,99300.47
2017-12-02T18:48:00.965Z,99299.06
2017-12-02T18:50:31.314Z,99302.13
2017-12-02T18:53:02.112Z,99310.08
2017-12-02T18:55:34.107Z,99306.54
2017-12-02T18:58:04.092Z,99303.95
2017-12-02T19:00:33.879Z,99309.41
2017-12-02T19:03:03.770Z,99310.19
2017-12-02T19:05:33.812Z,99311.70
2017-12-02T19:08:04.050Z,99315.69
2017-12-02T19:10:37.725Z,99310.96
2017-12-02T19:13:08.026Z,99304.17
2017-12-02T19:15:38.704Z,99312.28
2017-12-02T19:18:16.300Z,99309.83
2017-12-02T19:20:50.920Z,99308.37
2017-12-02T19:23:20.755Z,99299.70
2017-12-02T19:25:55.355Z,99306.69
2017-12-02T19:28:26.334Z,99305.67
2017-12-02T19:30:56.325Z,99306.83
2017-12-02T19:33:26.842Z,99307.07
2017-12-02T19:35:57.516Z,99305.00
2017-12-02T19:38:28.772Z,99301.59
2017-12-02T19:41:01.080Z,99296.41
2017-12-02T19:43:31.779Z,99297.61
2017-12-02T19:46:02.293Z,99293.21
2017-12-02T19:48:33.087Z,99296.68
2017-12-02T19:51:03.831Z,99300.26
2017-12-02T19:53:33.847Z,99301.50
2017-12-02T19:56:04.747Z,99303.73
2017-12-02T19:58:35.113Z,99297.42
2017-12-02T20:01:05.352Z,99295.93
2017-12-02T20:03:36.372Z,99303.14
2017-12-02T20:06:06.702Z,99303.56
2017-12-02T20:08:36.565Z,99302.66
2017-12-02T20:11:09.903Z,99297.88
2017-12-02T20:13:39.345Z,99299.20
2017-12-02T20:16:10.250Z,99306.58
2017-12-02T20:18:40.946Z,99301.47
2017-12-02T20:21:11.000Z,99298.40
2017-12-02T20:23:42.315Z,99295.98
2017-12-02T20:26:13.301Z,99296.92
2017-12-02T20:28:44.114Z,99291.92
2017-12-02T20:31:13.996Z,99297.91
2017-12-02T20:33:44.233Z,99302.39
2017-12-02T20:36:13.979Z,99294.10
2017-12-02T20:38:45.050Z,99301.48
2017-12-02T20:41:16.840Z,99300.58
2017-12-02T20:43:46.654Z,99300.50
2017-12-02T20:48:51.464Z,99298.98
2017-12-02T20:51:21.797Z,99296.10
2017-12-02T20:53:52.583Z,99299.09
2017-12-02T20:56:23.099Z,99303.80
2017-12-02T20:58:53.032Z,99303.98
2017-12-02T21:01:23.072Z,99304.28
2017-12-02T21:03:52.628Z,99307.55
2017-12-02T21:06:24.743Z,99306.79
2017-12-02T21:08:54.756Z,99308.61
2017-12-02T21:11:27.236Z,99300.66
2017-12-02T21:13:57.560Z,99306.31
2017-12-02T21:16:27.355Z,99301.27
2017-12-02T21:18:57.317Z,99307.56
2017-12-02T21:21:29.639Z,99303.84
2017-12-02T21:24:01.400Z,99306.23
2017-12-02T21:26:33.177Z,99313.35
2017-12-02T21:29:06.483Z,99308.62
2017-12-02T21:31:40.503Z,99303.73
2017-12-02T21:34:10.552Z,99306.38
2017-12-02T21:36:42.408Z,99304.48
2017-12-02T21:39:13.792Z,99304.34
2017-12-02T21:41:44.556Z,99301.77
2017-12-02T21:44:16.083Z,99294.72
2017-12-02T21:46:54.575Z,99291.73
2017-12-02T21:49:24.610Z,99302.83
2017-12-02T21:51:54.533Z,99292.91
2017-12-02T21:54:24.145Z,99291.72
2017-12-02T21:56:54.085Z,99294.64
2017-12-02T21:59:24.434Z,99290.24
2017-12-02T22:01:54.553Z,99299.75
2017-12-02T22:04:34.145Z,99301.34
2017-12-02T22:07:03.874Z,99291.95
2017-12-02T22:09:33.832Z,99295.02
2017-12-02T22:12:05.652Z,99300.93
2017-12-02T22:14:35.930Z,99302.59
2017-12-02T22:17:06.151Z,99307.78
2017-12-02T22:19:36.119Z,99300.67
2017-12-02T22:22:06.014Z,99303.23
2017-12-02T22:24:35.995Z,99306.45
2017-12-02T22:27:05.946Z,99308.61
2017-12-02T22:29:35.875Z,99302.13
2017-12-02T22:32:06.632Z,99305.88
2017-12-02T22:34:37.144Z,99298.83
2017-12-02T22:37:09.622Z,99298.19
2017-12-02T22:39:39.811Z,99303.31
2017-12-02T22:42:11.506Z,99301.65
2017-12-02T22:44:41.484Z,99295.78
2017-12-02T22:47:11.929Z,99299.53
2017-12-02T22:49:47.432Z,99299.81
2017-12-02T22:52:17.752Z,99293.88
2017-12-02T22:54:50.732Z,99300.37
2017-12-02T22:57:20.677Z,99301.75
2017-12-02T23:08:57.126Z,99296.59
2017-12-02T23:11:26.624Z,99298.26
2017-12-02T23:13:56.745Z,99290.68
2017-12-02T23:16:26.755Z,99289.88
2017-12-02T23:18:56.816Z,99285.91
2017-12-02T23:21:28.396Z,99288.64
2017-12-02T23:24:00.016Z,99285.44
2017-12-02T23:26:31.573Z,99291.64
2017-12-02T23:29:02.922Z,99292.06
2017-12-02T23:31:34.234Z,99294.45
2017-12-02T23:34:06.041Z,99295.06
2017-12-02T23:36:38.064Z,99296.53
2017-12-02T23:39:10.069Z,99299.94
2017-12-02T23:41:41.723Z,99292.91
2017-12-02T23:44:12.781Z,99296.12
2017-12-02T23:46:44.414Z,99294.23
2017-12-02T23:49:16.070Z,99290.60
2017-12-02T23:51:47.305Z,99287.69
2017-12-02T23:54:17.882Z,99276.86
2017-12-02T23:56:49.509Z,99277.58
2017-12-02T23:59:20.544Z,99274.36
